This is the latest recevied weather packets stored in our database for station/object KBTL-WX. If no packets are shown the sender has not sent any weather packets the latest 1 day(s).
| Time | Temp. | Humidity | Pressure | Rain* | Wind** | Luminosity | Snow |
|---|---|---|---|---|---|---|---|
| 1778047240 | 6.67° C | 67% | 976.4 hPa | 0 mm | 2.68 m/s, 318° | - | - |
| 1778046316 | 6.67° C | 67% | 976.9 hPa | 0 mm | 2.68 m/s, 319° | - | - |
| 1778045429 | 7.22° C | 67% | 976.6 hPa | 0 mm | 1.79 m/s, 295° | - | - |
| 1778044515 | 7.22° C | 67% | 976.5 hPa | 0 mm | 0.89 m/s, 299° | - | - |
| 1778043642 | 7.22° C | 67% | 976.5 hPa | 0 mm | 0.89 m/s, 312° | - | - |
| 1778042716 | 7.78° C | 57% | 977.6 hPa | 0 mm | 1.34 m/s, 304° | - | - |
| 1778041829 | 7.78° C | 61% | 976.9 hPa | 0 mm | 1.79 m/s, 294° | - | - |
| 1778040915 | 6.67° C | 61% | 976.9 hPa | 0 mm | 1.79 m/s, 287° | - | - |
| 1778040042 | 7.22° C | 61% | 976.9 hPa | 0 mm | 1.79 m/s, 273° | - | - |
| 1778039113 | 7.22° C | 57% | 976.7 hPa | 0 mm | 1.79 m/s, 264° | - | - |
| 1778037315 | 7.22° C | 59% | 976.5 hPa | 0 mm | 1.34 m/s, 266° | - | - |
| 1778036441 | 7.22° C | 59% | 976.5 hPa | 0 mm | 1.79 m/s, 267° | - | - |
| 1778035515 | 7.78° C | 55% | 976.7 hPa | 0 mm | 1.79 m/s, 264° | - | - |
| 1778034635 | 7.78° C | 51% | 976.9 hPa | 0 mm | 0.89 m/s, 256° | - | - |
| 1778033715 | 7.78° C | 51% | 976.9 hPa | 0 mm | 1.34 m/s, 253° | - | - |
| 1778032832 | 8.33° C | 51% | 976.9 hPa | 0 mm | 1.34 m/s, 282° | - | - |
| 1778031914 | 8.33° C | 46% | 976.3 hPa | 0 mm | 1.34 m/s, 306° | - | - |
| 1778031033 | 8.33° C | 46% | 976.3 hPa | 0 mm | 1.34 m/s, 277° | - | - |
| 1778030115 | 8.33° C | 46% | 976.3 hPa | 0 mm | 1.34 m/s, 297° | - | - |
| 1778029236 | 8.33° C | 46% | 976.3 hPa | 0 mm | 1.79 m/s, 307° | - | - |
| 1778028314 | 9.44° C | 41% | 976.1 hPa | 0 mm | 2.68 m/s, 302° | - | - |
| 1778027427 | 10° C | 38% | 976.8 hPa | 0 mm | 3.13 m/s, 309° | - | - |
| 1778026514 | 10° C | 38% | 976.8 hPa | 0 mm | 3.13 m/s, 304° | - | - |
| 1778025638 | 10° C | 38% | 976.8 hPa | 0 mm | 3.58 m/s, 307° | - | - |
| 1778024714 | 10.56° C | 39% | 976.4 hPa | 0 mm | 3.58 m/s, 306° | - | - |
* Rain latest hour (hover to see other rain measurements)
** Current wind speed in m/s (hover to see current wind gust speed)